createdAt,value
2023-04-15T00:01:02.697Z,7.81
2023-04-15T00:03:31.543Z,7.80
2023-04-15T00:06:00.924Z,7.78
2023-04-15T00:08:30.323Z,7.80
2023-04-15T00:11:02.968Z,7.75
2023-04-15T00:13:31.630Z,7.77
2023-04-15T00:16:00.243Z,7.74
2023-04-15T00:18:29.615Z,7.67
2023-04-15T00:20:58.108Z,7.62
2023-04-15T00:23:26.717Z,7.64
2023-04-15T00:25:55.722Z,7.57
2023-04-15T00:28:24.577Z,7.55
2023-04-15T00:30:53.209Z,7.52
2023-04-15T00:33:21.995Z,7.49
2023-04-15T00:35:51.412Z,7.54
2023-04-15T00:38:19.694Z,7.49
2023-04-15T00:40:48.227Z,7.52
2023-04-15T00:43:16.853Z,7.54
2023-04-15T00:45:47.297Z,7.59
2023-04-15T00:48:16.499Z,7.59
2023-04-15T00:50:44.721Z,7.55
2023-04-15T00:53:12.777Z,7.58
2023-04-15T00:55:41.579Z,7.59
2023-04-15T00:58:10.038Z,7.57
2023-04-15T01:00:38.882Z,7.52
2023-04-15T01:03:07.529Z,7.55
2023-04-15T01:05:36.524Z,7.59
2023-04-15T01:08:05.274Z,7.62
2023-04-15T01:10:34.466Z,7.60
2023-04-15T01:13:03.994Z,7.62
2023-04-15T01:15:32.772Z,7.63
2023-04-15T01:18:02.016Z,7.61
2023-04-15T01:20:31.480Z,7.66
2023-04-15T01:23:01.025Z,7.68
2023-04-15T01:25:34.892Z,7.67
2023-04-15T01:28:03.847Z,7.67
2023-04-15T01:30:36.285Z,7.62
2023-04-15T01:33:04.851Z,7.61
2023-04-15T01:35:33.365Z,7.61
2023-04-15T01:38:10.536Z,7.58
2023-04-15T01:40:39.498Z,7.57
2023-04-15T01:43:08.308Z,7.54
2023-04-15T01:45:37.358Z,7.54
2023-04-15T01:48:05.914Z,7.52
2023-04-15T01:50:36.864Z,7.50
2023-04-15T01:53:05.389Z,7.48
2023-04-15T01:55:33.910Z,7.46
2023-04-15T01:58:02.698Z,7.47
2023-04-15T02:00:32.830Z,7.43
2023-04-15T02:03:01.537Z,7.46
2023-04-15T02:05:30.652Z,7.48
2023-04-15T02:07:59.474Z,7.46
2023-04-15T02:10:28.502Z,7.45
2023-04-15T02:12:57.526Z,7.41
2023-04-15T02:15:26.034Z,7.38
2023-04-15T02:17:55.628Z,7.35
2023-04-15T02:20:24.454Z,7.34
2023-04-15T02:22:53.075Z,7.31
2023-04-15T02:25:21.705Z,7.30
2023-04-15T02:27:50.803Z,7.30
2023-04-15T02:30:19.654Z,7.28
2023-04-15T02:32:48.554Z,7.29
2023-04-15T02:35:19.238Z,7.28
2023-04-15T02:37:47.868Z,7.26
2023-04-15T02:40:16.446Z,7.26
2023-04-15T02:42:45.602Z,7.27
2023-04-15T02:45:14.224Z,7.25
2023-04-15T02:47:43.379Z,7.28
2023-04-15T02:50:15.192Z,7.29
2023-04-15T02:52:44.863Z,7.28
2023-04-15T02:55:13.639Z,7.27
2023-04-15T02:57:42.125Z,7.27
2023-04-15T03:00:12.095Z,7.25
2023-04-15T03:02:42.274Z,7.20
2023-04-15T03:05:16.082Z,7.21
2023-04-15T03:07:44.771Z,7.24
2023-04-15T03:10:13.290Z,7.24
2023-04-15T03:12:41.902Z,7.23
2023-04-15T03:15:11.099Z,7.21
2023-04-15T03:17:40.121Z,7.22
2023-04-15T03:20:09.666Z,7.20
2023-04-15T03:22:38.357Z,7.21
2023-04-15T03:25:07.724Z,7.22
2023-04-15T03:27:36.295Z,7.20
2023-04-15T03:30:04.981Z,7.22
2023-04-15T03:32:33.736Z,7.23
2023-04-15T03:35:02.439Z,7.23
2023-04-15T03:37:30.996Z,7.25
2023-04-15T03:39:59.596Z,7.19
2023-04-15T03:42:28.190Z,7.21
2023-04-15T03:44:56.995Z,7.21
2023-04-15T03:47:25.975Z,7.26
2023-04-15T03:49:54.475Z,7.28
2023-04-15T03:52:23.006Z,7.26
2023-04-15T03:54:51.565Z,7.25
2023-04-15T03:57:20.009Z,7.26
2023-04-15T03:59:48.549Z,7.27
2023-04-15T04:02:17.480Z,7.26
2023-04-15T04:04:46.495Z,7.19
2023-04-15T04:07:18.607Z,7.16
2023-04-15T04:09:47.520Z,7.15
2023-04-15T04:12:21.054Z,7.19
2023-04-15T04:14:49.467Z,7.23
2023-04-15T04:17:18.038Z,7.26
2023-04-15T04:19:46.542Z,7.27
2023-04-15T04:22:15.000Z,7.23
2023-04-15T04:24:43.457Z,7.23
2023-04-15T04:27:11.960Z,7.23
2023-04-15T04:29:40.095Z,7.24
2023-04-15T04:32:08.774Z,7.25
2023-04-15T04:34:38.965Z,7.29
2023-04-15T04:37:07.412Z,7.28
2023-04-15T04:39:36.204Z,7.29
2023-04-15T04:42:04.819Z,7.27
2023-04-15T04:44:33.478Z,7.27
2023-04-15T04:47:01.903Z,7.26
2023-04-15T04:49:30.461Z,7.29
2023-04-15T04:51:59.187Z,7.27
2023-04-15T04:54:27.838Z,7.28
2023-04-15T04:56:57.836Z,7.26
2023-04-15T04:59:26.482Z,7.27
2023-04-15T05:01:54.704Z,7.28
2023-04-15T05:04:23.522Z,7.29
2023-04-15T05:06:52.009Z,7.31
2023-04-15T05:09:20.583Z,7.35
2023-04-15T05:11:49.163Z,7.33
2023-04-15T05:14:17.612Z,7.35
2023-04-15T05:16:46.179Z,7.38
2023-04-15T05:19:14.805Z,7.33
2023-04-15T05:21:43.629Z,7.32
2023-04-15T05:24:12.236Z,7.39
2023-04-15T05:26:42.436Z,7.39
2023-04-15T05:29:11.351Z,7.37
2023-04-15T05:31:40.381Z,7.38
2023-04-15T05:34:09.138Z,7.36
2023-04-15T05:36:37.720Z,7.32
2023-04-15T05:39:06.170Z,7.34
2023-04-15T05:41:34.701Z,7.35
2023-04-15T05:44:03.216Z,7.41
2023-04-15T05:46:31.782Z,7.40
2023-04-15T05:49:00.576Z,7.44
2023-04-15T05:51:29.467Z,7.49
2023-04-15T05:53:58.078Z,7.50
2023-04-15T05:56:27.281Z,7.51
2023-04-15T05:58:56.570Z,7.50
2023-04-15T06:01:25.476Z,7.53
2023-04-15T06:03:54.606Z,7.53
2023-04-15T06:06:23.597Z,7.55
2023-04-15T06:08:52.308Z,7.55
2023-04-15T06:11:22.137Z,7.56
2023-04-15T06:13:50.357Z,7.64
2023-04-15T06:16:18.908Z,7.63
2023-04-15T06:18:47.088Z,7.62
2023-04-15T06:21:16.115Z,7.60
2023-04-15T06:23:44.696Z,7.69
2023-04-15T06:26:13.394Z,7.67
2023-04-15T06:28:41.905Z,7.67
2023-04-15T06:31:10.058Z,7.69
2023-04-15T06:33:39.624Z,7.68
2023-04-15T06:36:08.383Z,7.72
2023-04-15T06:38:36.932Z,7.72
2023-04-15T06:41:06.238Z,7.75
2023-04-15T06:43:34.848Z,7.73
2023-04-15T06:46:03.714Z,7.75
2023-04-15T06:48:32.248Z,7.71
2023-04-15T06:51:00.980Z,7.71
2023-04-15T06:53:29.463Z,7.73
2023-04-15T06:55:57.954Z,7.71
2023-04-15T06:58:26.620Z,7.71
2023-04-15T07:00:55.840Z,7.75
2023-04-15T07:03:24.830Z,7.77
2023-04-15T07:05:53.607Z,7.82
2023-04-15T07:08:22.310Z,7.83
2023-04-15T07:10:50.381Z,7.84
2023-04-15T07:13:18.907Z,7.84
2023-04-15T07:15:47.428Z,7.85
2023-04-15T07:18:16.058Z,7.88
2023-04-15T07:20:45.027Z,7.87
2023-04-15T07:23:13.537Z,7.88
2023-04-15T07:25:42.077Z,7.88
2023-04-15T07:28:10.207Z,7.88
2023-04-15T07:30:38.981Z,7.89
2023-04-15T07:33:08.055Z,7.87
2023-04-15T07:35:36.556Z,7.91
2023-04-15T07:38:05.074Z,7.94
2023-04-15T07:40:34.275Z,7.99
2023-04-15T07:43:03.637Z,7.99
2023-04-15T07:45:32.548Z,8.03
2023-04-15T07:48:01.858Z,8.02
2023-04-15T07:50:30.434Z,8.06
2023-04-15T07:52:58.935Z,8.05
2023-04-15T07:55:28.326Z,8.04
2023-04-15T07:57:57.434Z,8.04
2023-04-15T08:00:26.900Z,8.04
2023-04-15T08:02:57.502Z,8.12
2023-04-15T08:05:27.143Z,8.01
2023-04-15T08:07:56.605Z,8.10
2023-04-15T08:10:24.692Z,8.11
2023-04-15T08:12:54.413Z,8.11
2023-04-15T08:15:23.686Z,8.11
2023-04-15T08:17:52.270Z,8.14
2023-04-15T08:20:21.382Z,8.13
2023-04-15T08:22:52.122Z,8.18
2023-04-15T08:25:21.326Z,8.26
2023-04-15T08:27:49.835Z,8.24
2023-04-15T08:30:18.584Z,8.26
2023-04-15T08:32:51.576Z,8.29
2023-04-15T08:35:20.309Z,8.31
2023-04-15T08:37:48.805Z,8.31
2023-04-15T08:40:17.675Z,8.36
2023-04-15T08:42:50.864Z,8.38
2023-04-15T08:45:20.294Z,8.38
2023-04-15T08:47:53.791Z,8.40
2023-04-15T08:50:23.088Z,8.45
2023-04-15T08:52:51.791Z,8.47
2023-04-15T08:55:20.692Z,8.48
2023-04-15T08:57:49.437Z,8.51
2023-04-15T09:00:18.340Z,8.54
2023-04-15T09:02:47.100Z,8.55
2023-04-15T09:05:15.321Z,8.61
2023-04-15T09:07:43.564Z,8.65
2023-04-15T09:10:12.642Z,8.68
2023-04-15T09:12:41.530Z,8.62
2023-04-15T09:15:13.286Z,8.70
2023-04-15T09:17:45.713Z,8.72
2023-04-15T09:20:18.748Z,8.76
2023-04-15T09:22:49.775Z,8.80
2023-04-15T09:25:24.708Z,8.84
2023-04-15T09:27:55.054Z,8.86
2023-04-15T09:30:23.640Z,8.90
2023-04-15T09:32:56.759Z,8.90
2023-04-15T09:35:26.380Z,8.90
2023-04-15T09:37:56.143Z,8.89
2023-04-15T09:40:33.684Z,8.94
2023-04-15T09:43:03.826Z,8.97
2023-04-15T09:45:32.861Z,8.99
2023-04-15T09:48:28.203Z,9.03
2023-04-15T09:51:00.572Z,9.08
2023-04-15T09:53:31.650Z,9.11
2023-04-15T09:56:02.454Z,9.14
2023-04-15T09:58:33.836Z,9.13
2023-04-15T10:01:07.826Z,9.15
2023-04-15T10:03:37.785Z,9.17
2023-04-15T10:06:06.921Z,9.15
2023-04-15T10:08:36.385Z,9.15
2023-04-15T10:11:05.292Z,9.19
2023-04-15T10:13:36.355Z,9.20
2023-04-15T10:16:24.639Z,9.18
2023-04-15T10:19:03.087Z,9.21
2023-04-15T10:21:32.264Z,9.23
2023-04-15T10:24:01.966Z,9.26
2023-04-15T10:26:31.076Z,9.32
2023-04-15T10:29:01.300Z,9.39
2023-04-15T10:31:30.825Z,9.48
2023-04-15T10:34:04.185Z,9.42
2023-04-15T10:36:32.804Z,9.39
2023-04-15T10:39:01.450Z,9.41
2023-04-15T10:41:31.403Z,9.42
2023-04-15T10:44:06.090Z,9.40
2023-04-15T10:46:40.203Z,9.45
2023-04-15T10:49:14.362Z,9.49
2023-04-15T10:51:48.729Z,9.52
2023-04-15T10:54:27.499Z,9.55
2023-04-15T10:57:23.985Z,9.62
2023-04-15T11:00:11.551Z,9.63
2023-04-15T11:02:54.530Z,9.65
2023-04-15T11:05:44.316Z,9.67
2023-04-15T11:08:14.261Z,9.68
2023-04-15T11:10:55.542Z,9.70
2023-04-15T11:13:27.328Z,9.72
2023-04-15T11:16:00.332Z,9.77
2023-04-15T11:18:31.822Z,9.79
2023-04-15T11:21:06.217Z,9.80
2023-04-15T11:23:47.015Z,9.79
2023-04-15T11:26:15.844Z,9.71
2023-04-15T11:28:46.808Z,9.79
2023-04-15T11:31:18.141Z,9.81
2023-04-15T11:34:07.269Z,9.79
2023-04-15T11:36:35.821Z,9.84
2023-04-15T11:39:04.764Z,9.85
2023-04-15T11:41:32.990Z,9.88
2023-04-15T11:44:01.575Z,9.87
2023-04-15T11:46:33.334Z,9.89
2023-04-15T11:49:02.349Z,9.86
2023-04-15T11:51:35.355Z,9.83
2023-04-15T11:54:04.758Z,9.87
2023-04-15T11:56:33.197Z,9.90
2023-04-15T11:59:02.430Z,9.91
2023-04-15T12:01:41.546Z,9.94
2023-04-15T12:04:15.910Z,9.94
2023-04-15T12:06:44.662Z,9.95
2023-04-15T12:09:15.390Z,9.96
2023-04-15T12:11:43.848Z,9.95
2023-04-15T12:14:18.345Z,9.94
2023-04-15T12:16:51.801Z,9.93
2023-04-15T12:19:26.017Z,9.90
2023-04-15T12:22:00.650Z,9.92
2023-04-15T12:24:29.787Z,9.89
2023-04-15T12:27:03.996Z,9.89
2023-04-15T12:29:33.176Z,9.91
2023-04-15T12:32:14.891Z,9.88
2023-04-15T12:34:52.373Z,9.90
2023-04-15T12:37:21.195Z,9.92
2023-04-15T12:39:51.098Z,9.95
2023-04-15T12:42:19.890Z,9.94
2023-04-15T12:44:48.415Z,10.00
2023-04-15T12:47:17.029Z,10.10
2023-04-15T12:49:45.779Z,10.17
2023-04-15T12:52:15.157Z,10.26
2023-04-15T12:54:43.654Z,10.23
2023-04-15T12:57:12.403Z,10.24
2023-04-15T12:59:40.881Z,10.24
2023-04-15T13:02:09.816Z,10.17
2023-04-15T13:04:38.121Z,10.16
2023-04-15T13:07:06.659Z,10.20
2023-04-15T13:09:35.315Z,10.17
2023-04-15T13:12:05.457Z,10.16
2023-04-15T13:14:33.943Z,10.18
2023-04-15T13:17:04.195Z,10.15
2023-04-15T13:19:32.394Z,10.13
2023-04-15T13:22:00.657Z,10.11
2023-04-15T13:24:29.157Z,10.12
2023-04-15T13:26:59.412Z,10.15
2023-04-15T13:29:27.715Z,10.15
2023-04-15T13:31:56.803Z,10.14
2023-04-15T13:34:25.962Z,10.13
2023-04-15T13:36:54.571Z,10.17
2023-04-15T13:39:23.355Z,10.19
2023-04-15T13:41:51.891Z,10.18
2023-04-15T13:44:21.912Z,10.20
2023-04-15T13:46:51.030Z,10.24
2023-04-15T13:49:19.214Z,10.27
2023-04-15T13:51:47.884Z,10.25
2023-04-15T13:54:16.409Z,10.17
2023-04-15T13:56:44.985Z,10.16
2023-04-15T13:59:14.092Z,10.10
2023-04-15T14:01:43.968Z,10.16
2023-04-15T14:04:12.613Z,10.17
2023-04-15T14:06:41.326Z,10.16
2023-04-15T14:09:09.969Z,10.20
2023-04-15T14:11:40.723Z,10.15
2023-04-15T14:14:09.247Z,10.18
2023-04-15T14:16:37.778Z,10.17
2023-04-15T14:19:06.418Z,10.19
2023-04-15T14:21:35.163Z,10.23
2023-04-15T14:24:03.630Z,10.21
2023-04-15T14:26:32.453Z,10.22
2023-04-15T14:29:01.186Z,10.22
2023-04-15T14:31:29.847Z,10.22
2023-04-15T14:33:58.312Z,10.22
2023-04-15T14:36:27.225Z,10.19
2023-04-15T14:38:55.730Z,10.21
2023-04-15T14:41:24.019Z,10.24
2023-04-15T14:43:53.122Z,10.26
2023-04-15T14:46:21.760Z,10.25
2023-04-15T14:48:50.540Z,10.22
2023-04-15T14:51:19.027Z,10.25
2023-04-15T14:53:47.511Z,10.23
2023-04-15T14:56:16.044Z,10.24
2023-04-15T14:58:44.511Z,10.23
2023-04-15T15:01:13.105Z,10.25
2023-04-15T15:03:41.867Z,10.28
2023-04-15T15:06:10.632Z,10.18
2023-04-15T15:08:38.748Z,10.23
2023-04-15T15:11:07.334Z,10.30
2023-04-15T15:13:36.644Z,10.32
2023-04-15T15:16:07.730Z,10.34
2023-04-15T15:18:36.954Z,10.31
2023-04-15T15:21:05.271Z,10.37
2023-04-15T15:23:33.866Z,10.43
2023-04-15T15:26:02.364Z,10.41
2023-04-15T15:28:31.088Z,10.35
2023-04-15T15:30:59.591Z,10.38
2023-04-15T15:33:30.009Z,10.42
2023-04-15T15:35:59.613Z,10.44
2023-04-15T15:38:28.281Z,10.43
2023-04-15T15:40:56.446Z,10.43
2023-04-15T15:43:24.629Z,10.45
2023-04-15T15:45:55.474Z,10.50
2023-04-15T15:48:25.385Z,10.57
2023-04-15T15:50:54.090Z,10.59
2023-04-15T15:53:24.338Z,10.60
2023-04-15T15:55:53.899Z,10.65
2023-04-15T15:58:22.190Z,10.69
2023-04-15T16:00:50.806Z,10.72
2023-04-15T16:03:19.109Z,10.72
2023-04-15T16:05:47.911Z,10.73
2023-04-15T16:08:16.664Z,10.76
2023-04-15T16:10:45.750Z,10.77
2023-04-15T16:13:14.431Z,10.77
2023-04-15T16:15:43.000Z,10.82
2023-04-15T16:18:11.547Z,10.82
2023-04-15T16:20:40.405Z,10.83
2023-04-15T16:23:18.623Z,10.84
2023-04-15T16:25:47.399Z,10.84
2023-04-15T16:28:25.751Z,10.84
2023-04-15T16:30:55.452Z,10.84
2023-04-15T16:33:24.151Z,10.79
2023-04-15T16:35:53.084Z,10.76
2023-04-15T16:38:21.666Z,10.79
2023-04-15T16:40:49.824Z,10.80
2023-04-15T16:43:18.379Z,10.81
2023-04-15T16:45:50.902Z,10.77
2023-04-15T16:48:20.644Z,10.75
2023-04-15T16:50:49.838Z,10.75
2023-04-15T16:53:18.740Z,10.74
2023-04-15T16:55:47.271Z,10.73
2023-04-15T16:58:15.483Z,10.74
2023-04-15T17:00:44.000Z,10.71
2023-04-15T17:03:12.637Z,10.72
2023-04-15T17:05:42.468Z,10.72
2023-04-15T17:08:11.100Z,10.72
2023-04-15T17:10:41.067Z,10.71
2023-04-15T17:13:09.320Z,10.68
2023-04-15T17:15:38.013Z,10.68
2023-04-15T17:18:06.703Z,10.66
2023-04-15T17:20:35.480Z,10.65
2023-04-15T17:23:05.021Z,10.63
2023-04-15T17:25:33.667Z,10.62
2023-04-15T17:28:02.341Z,10.61
2023-04-15T17:30:30.905Z,10.59
2023-04-15T17:32:59.576Z,10.63
2023-04-15T17:35:28.197Z,10.62
2023-04-15T17:37:56.745Z,10.63
2023-04-15T17:40:25.174Z,10.61
2023-04-15T17:42:53.704Z,10.58
2023-04-15T17:45:25.912Z,10.55
2023-04-15T17:47:54.519Z,10.55
2023-04-15T17:50:23.234Z,10.55
2023-04-15T17:52:51.586Z,10.52
2023-04-15T17:55:20.081Z,10.49
2023-04-15T17:57:48.324Z,10.46
2023-04-15T18:00:17.525Z,10.44
2023-04-15T18:02:46.442Z,10.44
2023-04-15T18:05:15.806Z,10.36
2023-04-15T18:07:44.619Z,10.35
2023-04-15T18:10:13.229Z,10.34
2023-04-15T18:12:41.362Z,10.32
2023-04-15T18:15:10.589Z,10.33
2023-04-15T18:17:39.207Z,10.33
2023-04-15T18:20:08.398Z,10.32
2023-04-15T18:22:36.977Z,10.31
2023-04-15T18:25:06.043Z,10.33
2023-04-15T18:27:35.864Z,10.30
2023-04-15T18:30:04.413Z,10.30
2023-04-15T18:32:32.909Z,10.30
2023-04-15T18:35:01.145Z,10.31
2023-04-15T18:37:30.043Z,10.32
2023-04-15T18:39:58.999Z,10.31
2023-04-15T18:42:27.258Z,10.28
2023-04-15T18:44:56.053Z,10.29
2023-04-15T18:47:26.493Z,10.27
2023-04-15T18:49:55.715Z,10.29
2023-04-15T18:52:24.219Z,10.28
2023-04-15T18:54:52.739Z,10.28
2023-04-15T18:57:24.574Z,10.25
2023-04-15T19:00:00.991Z,10.26
2023-04-15T19:02:29.578Z,10.23
2023-04-15T19:04:58.080Z,10.24
2023-04-15T19:07:26.671Z,10.24
2023-04-15T19:09:55.023Z,10.21
2023-04-15T19:12:23.093Z,10.21
2023-04-15T19:14:51.633Z,10.18
2023-04-15T19:17:19.979Z,10.16
2023-04-15T19:19:50.883Z,10.17
2023-04-15T19:22:19.244Z,10.18
2023-04-15T19:24:48.130Z,10.18
2023-04-15T19:27:16.194Z,10.18
2023-04-15T19:29:44.432Z,10.19
2023-04-15T19:32:14.039Z,10.17
2023-04-15T19:34:43.392Z,10.17
2023-04-15T19:37:12.748Z,10.17
2023-04-15T19:39:40.899Z,10.17
2023-04-15T19:42:09.459Z,10.14
2023-04-15T19:44:42.736Z,10.16
2023-04-15T19:47:11.808Z,10.16
2023-04-15T19:49:40.227Z,10.17
2023-04-15T19:52:08.728Z,10.18
2023-04-15T19:54:37.019Z,10.18
2023-04-15T19:57:05.589Z,10.17
2023-04-15T19:59:34.053Z,10.16
2023-04-15T20:02:02.641Z,10.17
2023-04-15T20:04:31.461Z,10.16
2023-04-15T20:07:00.503Z,10.13
2023-04-15T20:09:29.021Z,10.11
2023-04-15T20:12:45.606Z,10.12
2023-04-15T20:14:46.056Z,10.12
2023-04-15T20:17:15.842Z,10.12
2023-04-15T20:19:44.360Z,10.12
2023-04-15T20:22:12.891Z,10.13
2023-04-15T20:24:41.400Z,10.12
2023-04-15T20:27:09.918Z,10.12
2023-04-15T20:29:38.537Z,10.12
2023-04-15T20:32:07.373Z,10.12
2023-04-15T20:34:35.569Z,10.12
2023-04-15T20:37:04.180Z,10.12
2023-04-15T20:39:32.710Z,10.13
2023-04-15T20:42:01.713Z,10.14
2023-04-15T20:44:30.416Z,10.13
2023-04-15T20:46:58.934Z,10.14
2023-04-15T20:49:27.468Z,10.13
2023-04-15T20:51:55.911Z,10.13
2023-04-15T20:54:25.193Z,10.14
2023-04-15T20:56:53.607Z,10.12
2023-04-15T20:59:22.157Z,10.13
2023-04-15T21:01:51.449Z,10.14
2023-04-15T21:04:19.570Z,10.13
2023-04-15T21:06:48.457Z,10.09
2023-04-15T21:09:16.515Z,10.08
2023-04-15T21:14:22.033Z,10.02
2023-04-15T21:16:50.629Z,10.02
2023-04-15T21:19:18.795Z,10.03
2023-04-15T21:21:46.967Z,10.01
2023-04-15T21:24:15.099Z,10.01
2023-04-15T21:26:44.144Z,9.99
2023-04-15T21:29:12.975Z,9.99
2023-04-15T21:31:41.732Z,9.98
2023-04-15T21:34:10.691Z,9.98
2023-04-15T21:36:39.858Z,9.96
2023-04-15T21:39:08.366Z,9.96
2023-04-15T21:41:37.914Z,9.97
2023-04-15T21:44:06.557Z,9.97
2023-04-15T21:46:36.057Z,9.99
2023-04-15T21:49:04.793Z,9.99
2023-04-15T21:51:33.553Z,9.98
2023-04-15T21:54:02.062Z,9.97
2023-04-15T21:56:30.584Z,9.96
2023-04-15T21:58:59.328Z,9.96
2023-04-15T22:01:28.342Z,9.94
2023-04-15T22:03:56.834Z,9.95
2023-04-15T22:06:25.549Z,9.95
2023-04-15T22:08:57.363Z,9.96
2023-04-15T22:11:28.467Z,9.98
2023-04-15T22:13:58.396Z,9.98
2023-04-15T22:16:27.798Z,10.02
2023-04-15T22:18:58.990Z,10.00
2023-04-15T22:21:27.894Z,10.02
2023-04-15T22:24:38.309Z,10.02
2023-04-15T22:26:44.908Z,10.03
2023-04-15T22:29:13.596Z,10.01
2023-04-15T22:31:42.476Z,10.00
2023-04-15T22:34:11.084Z,10.01
2023-04-15T22:36:39.181Z,9.99
2023-04-15T22:39:07.972Z,9.97
2023-04-15T22:41:36.644Z,9.96
2023-04-15T22:44:04.802Z,9.98
2023-04-15T22:46:33.307Z,9.98
2023-04-15T22:49:01.936Z,10.00
2023-04-15T22:51:30.386Z,10.01
2023-04-15T22:53:59.028Z,9.99
2023-04-15T22:56:27.594Z,9.99
2023-04-15T22:58:56.076Z,9.98
2023-04-15T23:01:24.785Z,9.99
2023-04-15T23:03:55.512Z,9.99
2023-04-15T23:06:27.110Z,9.98
2023-04-15T23:08:56.026Z,9.98
2023-04-15T23:11:24.542Z,9.97
2023-04-15T23:13:53.146Z,9.96
2023-04-15T23:16:21.266Z,9.95
2023-04-15T23:18:49.494Z,9.94
2023-04-15T23:21:18.011Z,9.95
2023-04-15T23:23:46.145Z,9.93
2023-04-15T23:26:14.455Z,9.93
2023-04-15T23:28:43.173Z,9.90
2023-04-15T23:31:11.934Z,9.90
2023-04-15T23:33:40.449Z,9.89
2023-04-15T23:36:08.780Z,9.89
2023-04-15T23:38:37.638Z,9.88
2023-04-15T23:41:06.216Z,9.89
2023-04-15T23:43:34.361Z,9.89
2023-04-15T23:46:02.663Z,9.90
2023-04-15T23:48:31.231Z,9.89
2023-04-15T23:51:00.704Z,9.88
2023-04-15T23:53:30.869Z,9.87
2023-04-15T23:55:59.407Z,9.86
2023-04-15T23:58:27.651Z,9.86
